sensor_id;sensor_type;location;lat;lon;timestamp;temperature;humidity
23685;DHT22;12020;51.384;6.908;2022-07-23T00:00:08;19.00;99.90
23685;DHT22;12020;51.384;6.908;2022-07-23T00:02:35;19.00;99.90
23685;DHT22;12020;51.384;6.908;2022-07-23T00:05:03;18.90;99.90
23685;DHT22;12020;51.384;6.908;2022-07-23T00:07:41;18.90;99.90
23685;DHT22;12020;51.384;6.908;2022-07-23T00:10:07;18.90;99.90
23685;DHT22;12020;51.384;6.908;2022-07-23T00:12:35;18.90;99.90
23685;DHT22;12020;51.384;6.908;2022-07-23T00:15:04;18.80;99.90
23685;DHT22;12020;51.384;6.908;2022-07-23T00:17:30;18.80;99.90
23685;DHT22;12020;51.384;6.908;2022-07-23T00:19:57;18.80;99.90
23685;DHT22;12020;51.384;6.908;2022-07-23T00:22:25;18.80;99.90
23685;DHT22;12020;51.384;6.908;2022-07-23T00:24:52;18.80;99.90
23685;DHT22;12020;51.384;6.908;2022-07-23T00:27:18;18.80;99.90
23685;DHT22;12020;51.384;6.908;2022-07-23T00:29:44;18.80;99.90
23685;DHT22;12020;51.384;6.908;2022-07-23T00:32:10;18.80;99.90
23685;DHT22;12020;51.384;6.908;2022-07-23T00:34:35;18.70;99.90
23685;DHT22;12020;51.384;6.908;2022-07-23T00:37:02;18.70;99.90
23685;DHT22;12020;51.384;6.908;2022-07-23T00:39:28;18.70;99.90
23685;DHT22;12020;51.384;6.908;2022-07-23T00:41:55;18.70;99.90
23685;DHT22;12020;51.384;6.908;2022-07-23T00:44:25;18.70;99.90
23685;DHT22;12020;51.384;6.908;2022-07-23T00:46:56;18.70;99.90
23685;DHT22;12020;51.384;6.908;2022-07-23T00:49:28;18.70;99.90
23685;DHT22;12020;51.384;6.908;2022-07-23T00:51:55;18.70;99.90
23685;DHT22;12020;51.384;6.908;2022-07-23T00:54:23;18.70;99.90
23685;DHT22;12020;51.384;6.908;2022-07-23T00:56:49;18.60;99.90
23685;DHT22;12020;51.384;6.908;2022-07-23T00:59:15;18.60;99.90
23685;DHT22;12020;51.384;6.908;2022-07-23T01:01:41;18.60;99.90
23685;DHT22;12020;51.384;6.908;2022-07-23T01:04:10;18.60;99.90
23685;DHT22;12020;51.384;6.908;2022-07-23T01:06:38;18.60;99.90
23685;DHT22;12020;51.384;6.908;2022-07-23T01:09:06;18.60;99.90
23685;DHT22;12020;51.384;6.908;2022-07-23T01:11:34;18.60;99.90
23685;DHT22;12020;51.384;6.908;2022-07-23T01:14:15;18.60;99.90
23685;DHT22;12020;51.384;6.908;2022-07-23T01:16:42;18.60;99.90
23685;DHT22;12020;51.384;6.908;2022-07-23T01:19:09;18.60;99.90
23685;DHT22;12020;51.384;6.908;2022-07-23T01:21:42;18.60;99.90
23685;DHT22;12020;51.384;6.908;2022-07-23T01:24:09;18.60;99.90
23685;DHT22;12020;51.384;6.908;2022-07-23T01:26:36;18.50;99.90
23685;DHT22;12020;51.384;6.908;2022-07-23T01:29:03;18.50;99.90
23685;DHT22;12020;51.384;6.908;2022-07-23T01:31:29;18.50;99.90
23685;DHT22;12020;51.384;6.908;2022-07-23T01:33:55;18.50;99.90
23685;DHT22;12020;51.384;6.908;2022-07-23T01:36:23;18.50;99.90
23685;DHT22;12020;51.384;6.908;2022-07-23T01:38:50;18.40;99.90
23685;DHT22;12020;51.384;6.908;2022-07-23T01:41:17;18.40;99.90
23685;DHT22;12020;51.384;6.908;2022-07-23T01:43:47;18.50;99.90
23685;DHT22;12020;51.384;6.908;2022-07-23T01:46:13;18.40;99.90
23685;DHT22;12020;51.384;6.908;2022-07-23T01:48:40;18.40;99.90
23685;DHT22;12020;51.384;6.908;2022-07-23T01:51:06;18.40;99.90
23685;DHT22;12020;51.384;6.908;2022-07-23T01:53:33;18.40;99.90
23685;DHT22;12020;51.384;6.908;2022-07-23T01:56:00;18.40;99.90
23685;DHT22;12020;51.384;6.908;2022-07-23T01:58:27;18.40;99.90
23685;DHT22;12020;51.384;6.908;2022-07-23T02:00:55;18.30;99.90
23685;DHT22;12020;51.384;6.908;2022-07-23T02:03:23;18.30;99.90
23685;DHT22;12020;51.384;6.908;2022-07-23T02:05:51;18.30;99.90
23685;DHT22;12020;51.384;6.908;2022-07-23T02:08:18;18.30;99.90
23685;DHT22;12020;51.384;6.908;2022-07-23T02:10:45;18.20;99.90
23685;DHT22;12020;51.384;6.908;2022-07-23T02:13:11;18.20;99.90
23685;DHT22;12020;51.384;6.908;2022-07-23T02:15:37;18.20;99.90
23685;DHT22;12020;51.384;6.908;2022-07-23T02:18:04;18.10;99.90
23685;DHT22;12020;51.384;6.908;2022-07-23T02:20:30;18.10;99.90
23685;DHT22;12020;51.384;6.908;2022-07-23T02:22:55;18.10;99.90
23685;DHT22;12020;51.384;6.908;2022-07-23T02:25:21;18.10;99.90
23685;DHT22;12020;51.384;6.908;2022-07-23T02:27:47;18.10;99.90
23685;DHT22;12020;51.384;6.908;2022-07-23T02:30:14;18.00;99.90
23685;DHT22;12020;51.384;6.908;2022-07-23T02:32:40;18.00;99.90
23685;DHT22;12020;51.384;6.908;2022-07-23T02:35:07;18.10;99.90
23685;DHT22;12020;51.384;6.908;2022-07-23T02:37:33;18.10;99.90
23685;DHT22;12020;51.384;6.908;2022-07-23T02:39:59;18.10;99.90
23685;DHT22;12020;51.384;6.908;2022-07-23T02:42:31;18.10;99.90
23685;DHT22;12020;51.384;6.908;2022-07-23T02:44:57;18.10;99.90
23685;DHT22;12020;51.384;6.908;2022-07-23T02:47:30;18.20;99.90
23685;DHT22;12020;51.384;6.908;2022-07-23T02:49:58;18.20;99.90
23685;DHT22;12020;51.384;6.908;2022-07-23T02:52:25;18.20;99.90
23685;DHT22;12020;51.384;6.908;2022-07-23T02:54:50;18.10;99.90
23685;DHT22;12020;51.384;6.908;2022-07-23T02:57:21;18.10;99.90
23685;DHT22;12020;51.384;6.908;2022-07-23T02:59:47;18.10;99.90
23685;DHT22;12020;51.384;6.908;2022-07-23T03:02:13;18.00;99.90
23685;DHT22;12020;51.384;6.908;2022-07-23T03:04:39;18.00;99.90
23685;DHT22;12020;51.384;6.908;2022-07-23T03:07:08;18.00;99.90
23685;DHT22;12020;51.384;6.908;2022-07-23T03:09:36;18.00;99.90
23685;DHT22;12020;51.384;6.908;2022-07-23T03:12:02;18.00;99.90
23685;DHT22;12020;51.384;6.908;2022-07-23T03:14:29;18.00;99.90
23685;DHT22;12020;51.384;6.908;2022-07-23T03:16:56;18.00;99.90
23685;DHT22;12020;51.384;6.908;2022-07-23T03:19:22;18.00;99.90
23685;DHT22;12020;51.384;6.908;2022-07-23T03:21:48;17.90;99.90
23685;DHT22;12020;51.384;6.908;2022-07-23T03:24:14;17.90;99.90
23685;DHT22;12020;51.384;6.908;2022-07-23T03:26:41;17.80;99.90
23685;DHT22;12020;51.384;6.908;2022-07-23T03:29:07;17.80;99.90
23685;DHT22;12020;51.384;6.908;2022-07-23T03:31:33;17.80;99.90
23685;DHT22;12020;51.384;6.908;2022-07-23T03:33:59;17.70;99.90
23685;DHT22;12020;51.384;6.908;2022-07-23T03:36:27;17.70;99.90
23685;DHT22;12020;51.384;6.908;2022-07-23T03:38:53;17.60;99.90
23685;DHT22;12020;51.384;6.908;2022-07-23T03:41:20;17.60;99.90
23685;DHT22;12020;51.384;6.908;2022-07-23T03:43:47;17.60;99.90
23685;DHT22;12020;51.384;6.908;2022-07-23T03:46:14;17.50;99.90
23685;DHT22;12020;51.384;6.908;2022-07-23T03:48:41;17.50;99.90
23685;DHT22;12020;51.384;6.908;2022-07-23T03:51:11;17.50;99.90
23685;DHT22;12020;51.384;6.908;2022-07-23T03:53:36;17.50;99.90
23685;DHT22;12020;51.384;6.908;2022-07-23T03:56:03;17.50;99.90
23685;DHT22;12020;51.384;6.908;2022-07-23T03:58:29;17.50;99.90
23685;DHT22;12020;51.384;6.908;2022-07-23T04:00:55;17.50;99.90
23685;DHT22;12020;51.384;6.908;2022-07-23T04:03:21;17.40;99.90
23685;DHT22;12020;51.384;6.908;2022-07-23T04:05:46;17.40;99.90
23685;DHT22;12020;51.384;6.908;2022-07-23T04:08:12;17.40;99.90
23685;DHT22;12020;51.384;6.908;2022-07-23T04:10:40;17.30;99.90
23685;DHT22;12020;51.384;6.908;2022-07-23T04:13:08;17.30;99.90
23685;DHT22;12020;51.384;6.908;2022-07-23T04:15:33;17.30;99.90
23685;DHT22;12020;51.384;6.908;2022-07-23T04:17:59;17.20;99.90
23685;DHT22;12020;51.384;6.908;2022-07-23T04:20:27;17.20;99.90
23685;DHT22;12020;51.384;6.908;2022-07-23T04:22:54;17.20;99.90
23685;DHT22;12020;51.384;6.908;2022-07-23T04:25:21;17.20;99.90
23685;DHT22;12020;51.384;6.908;2022-07-23T04:27:48;17.20;99.90
23685;DHT22;12020;51.384;6.908;2022-07-23T04:30:15;17.20;99.90
23685;DHT22;12020;51.384;6.908;2022-07-23T04:32:42;17.20;99.90
23685;DHT22;12020;51.384;6.908;2022-07-23T04:35:08;17.10;99.90
23685;DHT22;12020;51.384;6.908;2022-07-23T04:37:34;17.10;99.90
23685;DHT22;12020;51.384;6.908;2022-07-23T04:40:00;17.10;99.90
23685;DHT22;12020;51.384;6.908;2022-07-23T04:42:26;17.00;99.90
23685;DHT22;12020;51.384;6.908;2022-07-23T04:44:52;17.10;99.90
23685;DHT22;12020;51.384;6.908;2022-07-23T04:47:19;17.10;99.90
23685;DHT22;12020;51.384;6.908;2022-07-23T04:49:46;17.10;99.90
23685;DHT22;12020;51.384;6.908;2022-07-23T04:52:12;17.10;99.90
23685;DHT22;12020;51.384;6.908;2022-07-23T04:54:38;17.10;99.90
23685;DHT22;12020;51.384;6.908;2022-07-23T04:57:05;17.00;99.90
23685;DHT22;12020;51.384;6.908;2022-07-23T04:59:31;17.00;99.90
23685;DHT22;12020;51.384;6.908;2022-07-23T05:01:57;17.00;99.90
23685;DHT22;12020;51.384;6.908;2022-07-23T05:04:24;17.00;99.90
23685;DHT22;12020;51.384;6.908;2022-07-23T05:06:51;17.00;99.90
23685;DHT22;12020;51.384;6.908;2022-07-23T05:09:17;17.00;99.90
23685;DHT22;12020;51.384;6.908;2022-07-23T05:11:44;17.00;99.90
23685;DHT22;12020;51.384;6.908;2022-07-23T05:14:11;17.00;99.90
23685;DHT22;12020;51.384;6.908;2022-07-23T05:16:41;17.00;99.90
23685;DHT22;12020;51.384;6.908;2022-07-23T05:19:08;17.00;99.90
23685;DHT22;12020;51.384;6.908;2022-07-23T05:21:34;17.00;99.90
23685;DHT22;12020;51.384;6.908;2022-07-23T05:24:00;17.10;99.90
23685;DHT22;12020;51.384;6.908;2022-07-23T05:26:26;17.10;99.90
23685;DHT22;12020;51.384;6.908;2022-07-23T05:28:53;17.10;99.90
23685;DHT22;12020;51.384;6.908;2022-07-23T05:31:19;17.10;99.90
23685;DHT22;12020;51.384;6.908;2022-07-23T05:33:47;17.20;99.90
23685;DHT22;12020;51.384;6.908;2022-07-23T05:36:13;17.20;99.90
23685;DHT22;12020;51.384;6.908;2022-07-23T05:38:41;17.20;99.90
23685;DHT22;12020;51.384;6.908;2022-07-23T05:41:10;17.20;99.90
23685;DHT22;12020;51.384;6.908;2022-07-23T05:43:36;17.20;99.90
23685;DHT22;12020;51.384;6.908;2022-07-23T05:46:02;17.30;99.90
23685;DHT22;12020;51.384;6.908;2022-07-23T05:48:28;17.30;99.90
23685;DHT22;12020;51.384;6.908;2022-07-23T05:50:55;17.30;99.90
23685;DHT22;12020;51.384;6.908;2022-07-23T05:53:21;17.40;99.90
23685;DHT22;12020;51.384;6.908;2022-07-23T05:55:47;17.40;99.90
23685;DHT22;12020;51.384;6.908;2022-07-23T05:58:13;17.40;99.90
23685;DHT22;12020;51.384;6.908;2022-07-23T06:00:41;17.50;99.90
23685;DHT22;12020;51.384;6.908;2022-07-23T06:03:06;17.50;99.90
23685;DHT22;12020;51.384;6.908;2022-07-23T06:05:34;17.50;99.90
23685;DHT22;12020;51.384;6.908;2022-07-23T06:08:02;17.60;99.90
23685;DHT22;12020;51.384;6.908;2022-07-23T06:10:28;17.60;99.90
23685;DHT22;12020;51.384;6.908;2022-07-23T06:12:54;17.60;99.90
23685;DHT22;12020;51.384;6.908;2022-07-23T06:15:20;17.70;99.90
23685;DHT22;12020;51.384;6.908;2022-07-23T06:17:46;17.70;99.90
23685;DHT22;12020;51.384;6.908;2022-07-23T06:20:12;17.70;99.90
23685;DHT22;12020;51.384;6.908;2022-07-23T06:22:38;17.80;99.90
23685;DHT22;12020;51.384;6.908;2022-07-23T06:25:05;17.90;99.90
23685;DHT22;12020;51.384;6.908;2022-07-23T06:27:31;17.90;99.90
23685;DHT22;12020;51.384;6.908;2022-07-23T06:30:00;17.90;99.90
23685;DHT22;12020;51.384;6.908;2022-07-23T06:32:25;17.90;99.90
23685;DHT22;12020;51.384;6.908;2022-07-23T06:34:53;17.90;99.90
23685;DHT22;12020;51.384;6.908;2022-07-23T06:37:20;18.00;99.90
23685;DHT22;12020;51.384;6.908;2022-07-23T06:39:46;18.00;99.90
23685;DHT22;12020;51.384;6.908;2022-07-23T06:42:12;18.00;99.90
23685;DHT22;12020;51.384;6.908;2022-07-23T06:44:40;18.00;99.90
23685;DHT22;12020;51.384;6.908;2022-07-23T06:47:06;18.10;99.90
23685;DHT22;12020;51.384;6.908;2022-07-23T06:49:32;18.10;99.90
23685;DHT22;12020;51.384;6.908;2022-07-23T06:52:01;18.10;99.90
23685;DHT22;12020;51.384;6.908;2022-07-23T06:54:27;18.20;99.90
23685;DHT22;12020;51.384;6.908;2022-07-23T06:56:54;18.20;99.90
23685;DHT22;12020;51.384;6.908;2022-07-23T06:59:20;18.30;99.90
23685;DHT22;12020;51.384;6.908;2022-07-23T07:01:45;18.30;99.90
23685;DHT22;12020;51.384;6.908;2022-07-23T07:04:13;18.40;99.90
23685;DHT22;12020;51.384;6.908;2022-07-23T07:06:39;18.40;99.90
23685;DHT22;12020;51.384;6.908;2022-07-23T07:09:05;18.40;99.90
23685;DHT22;12020;51.384;6.908;2022-07-23T07:11:31;18.40;99.90
23685;DHT22;12020;51.384;6.908;2022-07-23T07:13:58;18.40;99.90
23685;DHT22;12020;51.384;6.908;2022-07-23T07:16:26;18.40;99.90
23685;DHT22;12020;51.384;6.908;2022-07-23T07:18:52;18.50;99.90
23685;DHT22;12020;51.384;6.908;2022-07-23T07:21:17;18.50;99.90
23685;DHT22;12020;51.384;6.908;2022-07-23T07:23:43;18.60;99.90
23685;DHT22;12020;51.384;6.908;2022-07-23T07:26:09;18.60;99.90
23685;DHT22;12020;51.384;6.908;2022-07-23T07:28:34;18.70;99.90
23685;DHT22;12020;51.384;6.908;2022-07-23T07:31:00;18.80;99.90
23685;DHT22;12020;51.384;6.908;2022-07-23T07:33:26;18.80;99.90
23685;DHT22;12020;51.384;6.908;2022-07-23T07:35:51;18.90;99.90
23685;DHT22;12020;51.384;6.908;2022-07-23T07:38:17;19.00;99.90
23685;DHT22;12020;51.384;6.908;2022-07-23T07:40:43;19.00;99.90
23685;DHT22;12020;51.384;6.908;2022-07-23T07:43:09;19.10;99.90
23685;DHT22;12020;51.384;6.908;2022-07-23T07:45:34;19.10;99.90
23685;DHT22;12020;51.384;6.908;2022-07-23T07:48:00;19.20;99.90
23685;DHT22;12020;51.384;6.908;2022-07-23T07:50:26;19.20;99.90
23685;DHT22;12020;51.384;6.908;2022-07-23T07:52:53;19.30;99.90
23685;DHT22;12020;51.384;6.908;2022-07-23T07:55:19;19.40;99.90
23685;DHT22;12020;51.384;6.908;2022-07-23T07:57:44;19.40;99.90
23685;DHT22;12020;51.384;6.908;2022-07-23T08:00:16;19.50;99.90
23685;DHT22;12020;51.384;6.908;2022-07-23T08:02:51;19.60;99.90
23685;DHT22;12020;51.384;6.908;2022-07-23T08:05:24;19.80;99.90
23685;DHT22;12020;51.384;6.908;2022-07-23T08:07:51;20.00;99.90
23685;DHT22;12020;51.384;6.908;2022-07-23T08:10:17;20.10;99.90
23685;DHT22;12020;51.384;6.908;2022-07-23T08:12:45;20.10;99.90
23685;DHT22;12020;51.384;6.908;2022-07-23T08:15:13;20.30;99.90
23685;DHT22;12020;51.384;6.908;2022-07-23T08:17:40;20.30;99.90
23685;DHT22;12020;51.384;6.908;2022-07-23T08:20:07;20.50;99.90
23685;DHT22;12020;51.384;6.908;2022-07-23T08:22:55;20.70;99.90
23685;DHT22;12020;51.384;6.908;2022-07-23T08:25:25;20.90;99.90
23685;DHT22;12020;51.384;6.908;2022-07-23T08:27:51;21.00;99.90
23685;DHT22;12020;51.384;6.908;2022-07-23T08:30:17;20.90;99.90
23685;DHT22;12020;51.384;6.908;2022-07-23T08:35:25;21.30;99.90
23685;DHT22;12020;51.384;6.908;2022-07-23T08:37:51;21.50;99.90
23685;DHT22;12020;51.384;6.908;2022-07-23T08:40:17;21.50;99.90
23685;DHT22;12020;51.384;6.908;2022-07-23T08:43:00;21.60;99.90
23685;DHT22;12020;51.384;6.908;2022-07-23T08:46:04;21.80;99.90
23685;DHT22;12020;51.384;6.908;2022-07-23T08:48:52;22.10;99.90
23685;DHT22;12020;51.384;6.908;2022-07-23T08:51:20;22.30;99.90
23685;DHT22;12020;51.384;6.908;2022-07-23T08:53:47;22.50;99.90
23685;DHT22;12020;51.384;6.908;2022-07-23T08:56:23;22.60;99.90
23685;DHT22;12020;51.384;6.908;2022-07-23T08:58:52;22.80;99.90
23685;DHT22;12020;51.384;6.908;2022-07-23T09:01:21;22.90;99.90
23685;DHT22;12020;51.384;6.908;2022-07-23T09:03:46;23.00;99.90
23685;DHT22;12020;51.384;6.908;2022-07-23T09:06:12;23.10;99.90
23685;DHT22;12020;51.384;6.908;2022-07-23T09:08:43;23.30;99.90
23685;DHT22;12020;51.384;6.908;2022-07-23T09:11:11;23.40;99.90
23685;DHT22;12020;51.384;6.908;2022-07-23T09:13:54;23.60;99.90
23685;DHT22;12020;51.384;6.908;2022-07-23T09:16:29;23.80;99.90
23685;DHT22;12020;51.384;6.908;2022-07-23T09:19:01;23.90;99.90
23685;DHT22;12020;51.384;6.908;2022-07-23T09:21:29;24.00;99.90
23685;DHT22;12020;51.384;6.908;2022-07-23T09:24:21;24.10;99.90
23685;DHT22;12020;51.384;6.908;2022-07-23T09:26:49;24.20;99.90
23685;DHT22;12020;51.384;6.908;2022-07-23T09:29:24;24.20;99.90
23685;DHT22;12020;51.384;6.908;2022-07-23T09:32:00;24.30;99.90
23685;DHT22;12020;51.384;6.908;2022-07-23T09:37:13;24.50;99.90
23685;DHT22;12020;51.384;6.908;2022-07-23T09:39:40;24.90;99.90
23685;DHT22;12020;51.384;6.908;2022-07-23T09:42:20;25.10;99.90
23685;DHT22;12020;51.384;6.908;2022-07-23T09:44:48;25.20;99.90
23685;DHT22;12020;51.384;6.908;2022-07-23T09:47:15;25.30;99.90
23685;DHT22;12020;51.384;6.908;2022-07-23T09:49:41;25.40;99.90
23685;DHT22;12020;51.384;6.908;2022-07-23T09:52:27;25.50;99.90
23685;DHT22;12020;51.384;6.908;2022-07-23T09:54:58;25.60;99.90
23685;DHT22;12020;51.384;6.908;2022-07-23T09:57:25;25.80;99.90
23685;DHT22;12020;51.384;6.908;2022-07-23T09:59:52;26.00;99.90
23685;DHT22;12020;51.384;6.908;2022-07-23T10:02:18;26.10;99.90
23685;DHT22;12020;51.384;6.908;2022-07-23T10:04:45;26.20;99.90
23685;DHT22;12020;51.384;6.908;2022-07-23T10:07:11;26.30;99.90
23685;DHT22;12020;51.384;6.908;2022-07-23T10:09:40;26.30;99.90
23685;DHT22;12020;51.384;6.908;2022-07-23T10:12:11;26.40;99.90
23685;DHT22;12020;51.384;6.908;2022-07-23T10:15:06;26.30;99.90
23685;DHT22;12020;51.384;6.908;2022-07-23T10:17:34;26.40;99.90
23685;DHT22;12020;51.384;6.908;2022-07-23T10:20:00;26.40;99.90
23685;DHT22;12020;51.384;6.908;2022-07-23T10:22:29;26.30;99.90
23685;DHT22;12020;51.384;6.908;2022-07-23T10:25:12;26.00;99.90
23685;DHT22;12020;51.384;6.908;2022-07-23T10:28:03;26.00;99.90
23685;DHT22;12020;51.384;6.908;2022-07-23T10:30:51;26.10;99.90
23685;DHT22;12020;51.384;6.908;2022-07-23T10:33:32;26.20;99.90
23685;DHT22;12020;51.384;6.908;2022-07-23T10:36:11;26.20;99.90
23685;DHT22;12020;51.384;6.908;2022-07-23T10:38:54;26.20;99.90
23685;DHT22;12020;51.384;6.908;2022-07-23T10:41:41;26.20;99.90
23685;DHT22;12020;51.384;6.908;2022-07-23T10:47:00;26.20;99.90
23685;DHT22;12020;51.384;6.908;2022-07-23T10:49:46;26.20;99.90
23685;DHT22;12020;51.384;6.908;2022-07-23T10:52:22;26.10;99.90
23685;DHT22;12020;51.384;6.908;2022-07-23T10:54:52;26.10;99.90
23685;DHT22;12020;51.384;6.908;2022-07-23T10:57:26;26.10;99.90
23685;DHT22;12020;51.384;6.908;2022-07-23T11:02:38;26.10;99.90
23685;DHT22;12020;51.384;6.908;2022-07-23T11:05:10;26.20;99.90
23685;DHT22;12020;51.384;6.908;2022-07-23T11:08:09;26.30;99.90
23685;DHT22;12020;51.384;6.908;2022-07-23T11:23:59;26.30;99.90
23685;DHT22;12020;51.384;6.908;2022-07-23T11:32:19;26.60;99.60
23685;DHT22;12020;51.384;6.908;2022-07-23T11:34:50;26.50;99.90
23685;DHT22;12020;51.384;6.908;2022-07-23T11:37:38;26.40;99.90
23685;DHT22;12020;51.384;6.908;2022-07-23T11:40:09;26.50;99.90
23685;DHT22;12020;51.384;6.908;2022-07-23T11:42:40;26.50;99.50
23685;DHT22;12020;51.384;6.908;2022-07-23T11:45:16;26.60;98.60
23685;DHT22;12020;51.384;6.908;2022-07-23T11:47:41;26.70;99.00
23685;DHT22;12020;51.384;6.908;2022-07-23T11:50:07;26.70;99.90
23685;DHT22;12020;51.384;6.908;2022-07-23T11:52:33;26.80;99.90
23685;DHT22;12020;51.384;6.908;2022-07-23T11:55:10;26.80;98.00
23685;DHT22;12020;51.384;6.908;2022-07-23T11:57:40;26.90;98.90
23685;DHT22;12020;51.384;6.908;2022-07-23T12:00:18;26.90;99.90
23685;DHT22;12020;51.384;6.908;2022-07-23T12:02:54;26.90;99.90
23685;DHT22;12020;51.384;6.908;2022-07-23T12:05:26;26.80;99.90
23685;DHT22;12020;51.384;6.908;2022-07-23T12:07:54;26.80;99.10
23685;DHT22;12020;51.384;6.908;2022-07-23T12:10:21;26.70;99.50
23685;DHT22;12020;51.384;6.908;2022-07-23T12:12:48;26.80;99.80
23685;DHT22;12020;51.384;6.908;2022-07-23T12:15:22;26.80;98.80
23685;DHT22;12020;51.384;6.908;2022-07-23T12:17:50;26.90;99.00
23685;DHT22;12020;51.384;6.908;2022-07-23T12:20:18;27.00;99.10
23685;DHT22;12020;51.384;6.908;2022-07-23T12:22:47;26.90;96.80
23685;DHT22;12020;51.384;6.908;2022-07-23T12:25:15;27.00;98.30
23685;DHT22;12020;51.384;6.908;2022-07-23T12:27:42;27.00;98.30
23685;DHT22;12020;51.384;6.908;2022-07-23T12:30:30;27.00;95.60
23685;DHT22;12020;51.384;6.908;2022-07-23T12:32:57;27.00;96.30
23685;DHT22;12020;51.384;6.908;2022-07-23T12:35:30;26.90;97.10
23685;DHT22;12020;51.384;6.908;2022-07-23T12:38:01;26.70;97.20
23685;DHT22;12020;51.384;6.908;2022-07-23T12:40:37;26.50;96.00
23685;DHT22;12020;51.384;6.908;2022-07-23T12:43:09;26.50;96.50
23685;DHT22;12020;51.384;6.908;2022-07-23T12:45:57;26.50;97.80
23685;DHT22;12020;51.384;6.908;2022-07-23T12:48:35;26.50;96.40
23685;DHT22;12020;51.384;6.908;2022-07-23T12:51:08;26.50;97.60
23685;DHT22;12020;51.384;6.908;2022-07-23T12:56:13;26.40;96.80
23685;DHT22;12020;51.384;6.908;2022-07-23T12:58:47;26.20;96.40
23685;DHT22;12020;51.384;6.908;2022-07-23T13:06:37;26.40;96.70
23685;DHT22;12020;51.384;6.908;2022-07-23T13:09:24;26.50;97.10
23685;DHT22;12020;51.384;6.908;2022-07-23T13:11:52;26.60;97.30
23685;DHT22;12020;51.384;6.908;2022-07-23T13:14:19;26.60;98.60
23685;DHT22;12020;51.384;6.908;2022-07-23T13:16:46;26.70;97.30
23685;DHT22;12020;51.384;6.908;2022-07-23T13:19:13;26.70;97.80
23685;DHT22;12020;51.384;6.908;2022-07-23T13:21:40;26.80;97.50
23685;DHT22;12020;51.384;6.908;2022-07-23T13:24:07;26.90;96.10
23685;DHT22;12020;51.384;6.908;2022-07-23T13:26:33;26.90;96.80
23685;DHT22;12020;51.384;6.908;2022-07-23T13:29:01;26.80;96.30
23685;DHT22;12020;51.384;6.908;2022-07-23T13:31:27;26.70;95.40
23685;DHT22;12020;51.384;6.908;2022-07-23T13:33:54;26.70;95.60
23685;DHT22;12020;51.384;6.908;2022-07-23T13:36:19;26.70;94.90
23685;DHT22;12020;51.384;6.908;2022-07-23T13:38:46;26.70;92.90
23685;DHT22;12020;51.384;6.908;2022-07-23T13:41:13;26.70;93.80
23685;DHT22;12020;51.384;6.908;2022-07-23T13:43:41;26.70;96.20
23685;DHT22;12020;51.384;6.908;2022-07-23T13:46:07;26.70;94.80
23685;DHT22;12020;51.384;6.908;2022-07-23T13:48:33;26.80;95.80
23685;DHT22;12020;51.384;6.908;2022-07-23T13:50:59;26.70;95.30
23685;DHT22;12020;51.384;6.908;2022-07-23T13:53:25;26.60;95.70
23685;DHT22;12020;51.384;6.908;2022-07-23T13:55:52;26.50;93.20
23685;DHT22;12020;51.384;6.908;2022-07-23T13:58:19;26.50;94.20
23685;DHT22;12020;51.384;6.908;2022-07-23T14:00:48;26.50;95.10
23685;DHT22;12020;51.384;6.908;2022-07-23T14:03:22;26.60;95.70
23685;DHT22;12020;51.384;6.908;2022-07-23T14:05:50;26.70;93.80
23685;DHT22;12020;51.384;6.908;2022-07-23T14:08:16;26.70;94.60
23685;DHT22;12020;51.384;6.908;2022-07-23T14:10:51;26.70;95.20
23685;DHT22;12020;51.384;6.908;2022-07-23T14:13:18;26.80;95.50
23685;DHT22;12020;51.384;6.908;2022-07-23T14:15:45;26.80;94.50
23685;DHT22;12020;51.384;6.908;2022-07-23T14:18:12;26.70;95.10
23685;DHT22;12020;51.384;6.908;2022-07-23T14:20:40;26.60;95.00
23685;DHT22;12020;51.384;6.908;2022-07-23T14:23:08;26.60;94.20
23685;DHT22;12020;51.384;6.908;2022-07-23T14:25:35;26.50;94.30
23685;DHT22;12020;51.384;6.908;2022-07-23T14:28:00;26.50;94.30
23685;DHT22;12020;51.384;6.908;2022-07-23T14:30:26;26.50;93.30
23685;DHT22;12020;51.384;6.908;2022-07-23T14:32:53;26.50;94.40
23685;DHT22;12020;51.384;6.908;2022-07-23T14:35:23;26.50;95.80
23685;DHT22;12020;51.384;6.908;2022-07-23T14:37:50;26.60;96.80
23685;DHT22;12020;51.384;6.908;2022-07-23T14:40:18;26.60;97.10
23685;DHT22;12020;51.384;6.908;2022-07-23T14:42:44;26.60;94.50
23685;DHT22;12020;51.384;6.908;2022-07-23T14:45:10;26.60;94.80
23685;DHT22;12020;51.384;6.908;2022-07-23T14:47:37;26.60;92.20
23685;DHT22;12020;51.384;6.908;2022-07-23T14:50:03;26.60;92.50
23685;DHT22;12020;51.384;6.908;2022-07-23T14:52:30;26.50;94.10
23685;DHT22;12020;51.384;6.908;2022-07-23T14:54:56;26.40;93.80
23685;DHT22;12020;51.384;6.908;2022-07-23T14:57:21;26.30;93.90
23685;DHT22;12020;51.384;6.908;2022-07-23T14:59:48;26.30;92.90
23685;DHT22;12020;51.384;6.908;2022-07-23T15:02:15;26.20;93.70
23685;DHT22;12020;51.384;6.908;2022-07-23T15:04:41;26.20;92.30
23685;DHT22;12020;51.384;6.908;2022-07-23T15:07:06;26.20;93.60
23685;DHT22;12020;51.384;6.908;2022-07-23T15:09:32;26.20;93.90
23685;DHT22;12020;51.384;6.908;2022-07-23T15:11:58;26.20;93.70
23685;DHT22;12020;51.384;6.908;2022-07-23T15:14:24;26.20;94.00
23685;DHT22;12020;51.384;6.908;2022-07-23T15:16:50;26.20;94.20
23685;DHT22;12020;51.384;6.908;2022-07-23T15:19:17;26.20;93.20
23685;DHT22;12020;51.384;6.908;2022-07-23T15:21:44;26.20;92.80
23685;DHT22;12020;51.384;6.908;2022-07-23T15:24:11;26.20;91.40
23685;DHT22;12020;51.384;6.908;2022-07-23T15:26:37;26.20;92.50
23685;DHT22;12020;51.384;6.908;2022-07-23T15:29:09;26.10;92.80
23685;DHT22;12020;51.384;6.908;2022-07-23T15:31:35;26.10;92.10
23685;DHT22;12020;51.384;6.908;2022-07-23T15:34:01;26.20;93.50
23685;DHT22;12020;51.384;6.908;2022-07-23T15:36:26;26.20;94.30
23685;DHT22;12020;51.384;6.908;2022-07-23T15:38:52;26.10;93.30
23685;DHT22;12020;51.384;6.908;2022-07-23T15:41:19;26.10;93.40
23685;DHT22;12020;51.384;6.908;2022-07-23T15:43:44;26.00;93.20
23685;DHT22;12020;51.384;6.908;2022-07-23T15:46:11;26.00;92.90
23685;DHT22;12020;51.384;6.908;2022-07-23T15:48:37;26.00;92.90
23685;DHT22;12020;51.384;6.908;2022-07-23T15:51:05;25.90;93.50
23685;DHT22;12020;51.384;6.908;2022-07-23T15:53:32;25.90;93.70
23685;DHT22;12020;51.384;6.908;2022-07-23T15:55:58;25.90;93.80
23685;DHT22;12020;51.384;6.908;2022-07-23T15:58:24;25.80;94.00
23685;DHT22;12020;51.384;6.908;2022-07-23T16:00:49;25.90;94.50
23685;DHT22;12020;51.384;6.908;2022-07-23T16:03:16;25.80;94.90
23685;DHT22;12020;51.384;6.908;2022-07-23T16:05:42;25.80;94.50
23685;DHT22;12020;51.384;6.908;2022-07-23T16:08:08;25.80;95.30
23685;DHT22;12020;51.384;6.908;2022-07-23T16:10:35;25.80;95.50
23685;DHT22;12020;51.384;6.908;2022-07-23T16:13:01;25.80;95.60
23685;DHT22;12020;51.384;6.908;2022-07-23T16:15:45;25.80;94.90